DHBYE EDDH-EDDH
Flight info
| Callsign | DHBYE |
|---|---|
| Flight time | 1h 15m |
| Altitude | 1111 |
| Route | DCT 5334N00941E DCT ESTAD DCT APNOC DCT 5306N00844E DCT 5257N00849E DCT EDWV DCT EDXQ DCT 5307N00948E DCT 5320N00952E DCT 5327N00960E DCT |
| Aircraft | EC35/L-SDFGRUY/S |
Departure
| Time | 2026-04-22 17:53 |
|---|---|
| Airport | Hamburg Helmut Schmidt Airport (EDDH) |
Arrival
| Time | 2026-04-22 19:08 |
|---|---|
| Airport | Hamburg Helmut Schmidt Airport (EDDH) |
| Time | Latitude | Longitude | Altitude | Speed | Heading |
|---|---|---|---|---|---|
| 2026-04-22 17:40 | 53.62548 | 9.99398 | 58 ft | 0 kts | 257° |
| 2026-04-22 17:50 | 53.62546 | 9.99384 | 61 ft | 5 kts | 260° |
| 2026-04-22 17:50 | 53.62579 | 9.99334 | 61 ft | 8 kts | 312° |
| 2026-04-22 17:50 | 53.62575 | 9.99210 | 63 ft | 15 kts | 262° |
| 2026-04-22 17:51 | 53.62555 | 9.99044 | 63 ft | 13 kts | 261° |
| 2026-04-22 17:51 | 53.62537 | 9.98878 | 63 ft | 13 kts | 262° |
| 2026-04-22 17:51 | 53.62521 | 9.98727 | 62 ft | 13 kts | 263° |
| 2026-04-22 17:51 | 53.62500 | 9.98545 | 66 ft | 16 kts | 274° |
| 2026-04-22 17:52 | 53.62635 | 9.98314 | 109 ft | 42 kts | 305° |
| 2026-04-22 17:52 | 53.62807 | 9.97799 | 336 ft | 60 kts | 296° |
| 2026-04-22 17:52 | 53.62915 | 9.97026 | 510 ft | 76 kts | 264° |
| 2026-04-22 17:52 | 53.62764 | 9.96113 | 638 ft | 85 kts | 246° |
| 2026-04-22 17:53 | 53.62486 | 9.95178 | 755 ft | 88 kts | 242° |
| 2026-04-22 17:53 | 53.62220 | 9.94278 | 901 ft | 86 kts | 246° |
| 2026-04-22 17:53 | 53.62015 | 9.93351 | 1058 ft | 84 kts | 250° |
| 2026-04-22 17:53 | 53.61832 | 9.92401 | 1193 ft | 85 kts | 252° |
| 2026-04-22 17:54 | 53.61681 | 9.91412 | 1285 ft | 87 kts | 255° |
| 2026-04-22 17:54 | 53.61532 | 9.90428 | 1401 ft | 87 kts | 254° |
| 2026-04-22 17:54 | 53.61354 | 9.89438 | 1484 ft | 89 kts | 250° |
| 2026-04-22 17:54 | 53.61167 | 9.88422 | 1520 ft | 92 kts | 250° |
| 2026-04-22 17:55 | 53.61023 | 9.87730 | 1525 ft | 95 kts | 249° |
| 2026-04-22 17:55 | 53.60708 | 9.86322 | 1498 ft | 97 kts | 248° |
| 2026-04-22 17:55 | 53.60475 | 9.85252 | 1487 ft | 97 kts | 248° |
| 2026-04-22 17:55 | 53.60247 | 9.84169 | 1496 ft | 95 kts | 246° |
| 2026-04-22 17:56 | 53.60026 | 9.83116 | 1513 ft | 95 kts | 247° |
| 2026-04-22 17:56 | 53.59800 | 9.82074 | 1532 ft | 95 kts | 249° |
| 2026-04-22 17:56 | 53.59556 | 9.81004 | 1526 ft | 98 kts | 246° |
| 2026-04-22 17:56 | 53.59278 | 9.79954 | 1495 ft | 99 kts | 242° |
| 2026-04-22 17:57 | 53.58990 | 9.78882 | 1463 ft | 99 kts | 245° |
| 2026-04-22 17:57 | 53.58743 | 9.77813 | 1484 ft | 96 kts | 249° |
| 2026-04-22 17:57 | 53.58538 | 9.76756 | 1518 ft | 95 kts | 252° |
| 2026-04-22 17:57 | 53.58374 | 9.75676 | 1538 ft | 95 kts | 255° |
| 2026-04-22 17:58 | 53.58238 | 9.74577 | 1549 ft | 95 kts | 256° |
| 2026-04-22 17:58 | 53.58127 | 9.73470 | 1538 ft | 96 kts | 259° |
| 2026-04-22 17:58 | 53.58046 | 9.72340 | 1508 ft | 98 kts | 261° |
| 2026-04-22 17:58 | 53.57944 | 9.71211 | 1478 ft | 98 kts | 256° |
| 2026-04-22 17:59 | 53.57830 | 9.70076 | 1468 ft | 97 kts | 257° |
| 2026-04-22 17:59 | 53.57697 | 9.69112 | 1481 ft | 95 kts | 251° |
| 2026-04-22 17:59 | 53.57506 | 9.68065 | 1510 ft | 94 kts | 247° |
| 2026-04-22 17:59 | 53.57167 | 9.67095 | 1525 ft | 98 kts | 235° |
| 2026-04-22 18:00 | 53.56859 | 9.66528 | 1526 ft | 100 kts | 228° |
| 2026-04-22 18:00 | 53.56197 | 9.65402 | 1498 ft | 101 kts | 233° |
| 2026-04-22 18:00 | 53.55782 | 9.64443 | 1473 ft | 100 kts | 238° |
| 2026-04-22 18:00 | 53.55395 | 9.63467 | 1470 ft | 99 kts | 239° |
| 2026-04-22 18:01 | 53.55040 | 9.62502 | 1484 ft | 97 kts | 240° |
| 2026-04-22 18:01 | 53.54682 | 9.61535 | 1502 ft | 97 kts | 241° |
| 2026-04-22 18:01 | 53.54339 | 9.60566 | 1522 ft | 96 kts | 241° |
| 2026-04-22 18:01 | 53.53985 | 9.59616 | 1602 ft | 92 kts | 240° |
| 2026-04-22 18:02 | 53.53666 | 9.58737 | 1753 ft | 86 kts | 243° |
| 2026-04-22 18:02 | 53.53387 | 9.57864 | 1906 ft | 84 kts | 246° |
| 2026-04-22 18:02 | 53.53126 | 9.56955 | 1990 ft | 88 kts | 247° |
| 2026-04-22 18:02 | 53.52839 | 9.56015 | 2017 ft | 94 kts | 240° |
| 2026-04-22 18:03 | 53.52378 | 9.55186 | 2003 ft | 101 kts | 221° |
| 2026-04-22 18:03 | 53.51754 | 9.54607 | 2003 ft | 105 kts | 208° |
| 2026-04-22 18:03 | 53.51078 | 9.54112 | 1994 ft | 105 kts | 208° |
| 2026-04-22 18:03 | 53.50431 | 9.53578 | 1992 ft | 104 kts | 212° |
| 2026-04-22 18:04 | 53.49791 | 9.52995 | 1993 ft | 103 kts | 213° |
| 2026-04-22 18:04 | 53.49172 | 9.52402 | 1994 ft | 103 kts | 214° |
| 2026-04-22 18:04 | 53.48557 | 9.51789 | 1994 ft | 102 kts | 215° |
| 2026-04-22 18:04 | 53.47951 | 9.51161 | 1994 ft | 102 kts | 216° |
| 2026-04-22 18:05 | 53.47349 | 9.50510 | 1994 ft | 102 kts | 217° |
| 2026-04-22 18:05 | 53.46749 | 9.49871 | 1997 ft | 102 kts | 215° |
| 2026-04-22 18:05 | 53.46143 | 9.49238 | 1993 ft | 102 kts | 217° |
| 2026-04-22 18:05 | 53.45538 | 9.48620 | 1994 ft | 103 kts | 216° |
| 2026-04-22 18:06 | 53.44935 | 9.47979 | 1994 ft | 102 kts | 217° |
| 2026-04-22 18:06 | 53.44339 | 9.47340 | 1995 ft | 102 kts | 217° |
| 2026-04-22 18:06 | 53.43739 | 9.46700 | 1995 ft | 102 kts | 216° |
| 2026-04-22 18:06 | 53.43136 | 9.46059 | 1996 ft | 102 kts | 216° |
| 2026-04-22 18:07 | 53.42518 | 9.45460 | 1997 ft | 103 kts | 213° |
| 2026-04-22 18:07 | 53.41898 | 9.44844 | 1992 ft | 102 kts | 216° |
| 2026-04-22 18:07 | 53.41300 | 9.44205 | 1994 ft | 102 kts | 217° |
| 2026-04-22 18:07 | 53.40694 | 9.43558 | 1989 ft | 103 kts | 216° |
| 2026-04-22 18:08 | 53.40099 | 9.42910 | 1986 ft | 102 kts | 218° |
| 2026-04-22 18:08 | 53.39503 | 9.42258 | 1982 ft | 103 kts | 217° |
| 2026-04-22 18:08 | 53.38898 | 9.41625 | 1984 ft | 102 kts | 216° |
| 2026-04-22 18:08 | 53.38277 | 9.40972 | 2001 ft | 105 kts | 217° |
| 2026-04-22 18:09 | 53.37656 | 9.40297 | 2043 ft | 106 kts | 218° |
| 2026-04-22 18:09 | 53.37020 | 9.39605 | 2057 ft | 107 kts | 217° |
| 2026-04-22 18:09 | 53.36400 | 9.38905 | 2042 ft | 110 kts | 218° |
| 2026-04-22 18:09 | 53.35755 | 9.38223 | 2073 ft | 108 kts | 215° |
| 2026-04-22 18:10 | 53.35107 | 9.37559 | 2062 ft | 111 kts | 216° |
| 2026-04-22 18:10 | 53.34451 | 9.36854 | 2011 ft | 112 kts | 217° |
| 2026-04-22 18:10 | 53.33796 | 9.36126 | 1954 ft | 113 kts | 218° |
| 2026-04-22 18:10 | 53.33161 | 9.35361 | 1926 ft | 111 kts | 220° |
| 2026-04-22 18:11 | 53.32558 | 9.34548 | 1906 ft | 110 kts | 225° |
| 2026-04-22 18:11 | 53.32109 | 9.33840 | 1923 ft | 108 kts | 227° |
| 2026-04-22 18:11 | 53.31616 | 9.33031 | 1953 ft | 106 kts | 227° |
| 2026-04-22 18:11 | 53.31136 | 9.32274 | 2009 ft | 106 kts | 227° |
| 2026-04-22 18:12 | 53.30653 | 9.31452 | 2036 ft | 107 kts | 229° |
| 2026-04-22 18:12 | 53.30074 | 9.30627 | 2024 ft | 111 kts | 223° |
| 2026-04-22 18:12 | 53.29675 | 9.30053 | 1994 ft | 113 kts | 225° |
| 2026-04-22 18:12 | 53.28947 | 9.28804 | 1956 ft | 110 kts | 233° |
| 2026-04-22 18:13 | 53.28504 | 9.27773 | 1970 ft | 108 kts | 238° |
| 2026-04-22 18:13 | 53.28112 | 9.26700 | 1953 ft | 109 kts | 242° |
| 2026-04-22 18:13 | 53.27724 | 9.25591 | 1932 ft | 111 kts | 242° |
| 2026-04-22 18:13 | 53.27327 | 9.24492 | 1932 ft | 110 kts | 241° |
| 2026-04-22 18:14 | 53.26951 | 9.23389 | 1926 ft | 110 kts | 244° |
| 2026-04-22 18:14 | 53.26575 | 9.22287 | 1957 ft | 109 kts | 243° |
| 2026-04-22 18:14 | 53.26194 | 9.21175 | 1990 ft | 109 kts | 243° |
| 2026-04-22 18:14 | 53.25808 | 9.20083 | 2004 ft | 111 kts | 242° |
| 2026-04-22 18:15 | 53.25381 | 9.19002 | 2017 ft | 113 kts | 238° |
| 2026-04-22 18:15 | 53.24907 | 9.17922 | 2005 ft | 113 kts | 236° |
| 2026-04-22 18:15 | 53.24485 | 9.16799 | 2003 ft | 113 kts | 241° |
| 2026-04-22 18:15 | 53.24070 | 9.15671 | 1970 ft | 116 kts | 240° |
| 2026-04-22 18:16 | 53.23628 | 9.14532 | 1955 ft | 116 kts | 239° |
| 2026-04-22 18:16 | 53.23197 | 9.13419 | 2000 ft | 112 kts | 240° |
| 2026-04-22 18:16 | 53.22789 | 9.12303 | 1997 ft | 114 kts | 242° |
| 2026-04-22 18:16 | 53.22382 | 9.11144 | 1985 ft | 116 kts | 242° |
| 2026-04-22 18:17 | 53.21972 | 9.09984 | 1954 ft | 117 kts | 241° |
| 2026-04-22 18:17 | 53.21558 | 9.08827 | 1949 ft | 114 kts | 244° |
| 2026-04-22 18:17 | 53.21209 | 9.07664 | 2015 ft | 110 kts | 247° |
| 2026-04-22 18:17 | 53.20879 | 9.06484 | 2025 ft | 112 kts | 248° |
| 2026-04-22 18:18 | 53.20556 | 9.05297 | 2027 ft | 114 kts | 244° |
| 2026-04-22 18:18 | 53.20160 | 9.04113 | 2000 ft | 116 kts | 243° |
| 2026-04-22 18:18 | 53.19777 | 9.02929 | 1963 ft | 117 kts | 244° |
| 2026-04-22 18:18 | 53.19407 | 9.01732 | 1983 ft | 114 kts | 246° |
| 2026-04-22 18:19 | 53.19072 | 9.00539 | 1980 ft | 114 kts | 248° |
| 2026-04-22 18:19 | 53.18727 | 8.99337 | 1960 ft | 116 kts | 245° |
| 2026-04-22 18:19 | 53.18353 | 8.98163 | 1962 ft | 114 kts | 245° |
| 2026-04-22 18:19 | 53.17979 | 8.96981 | 1981 ft | 114 kts | 245° |
| 2026-04-22 18:20 | 53.17613 | 8.95803 | 1989 ft | 114 kts | 245° |
| 2026-04-22 18:20 | 53.17252 | 8.94628 | 1996 ft | 114 kts | 245° |
| 2026-04-22 18:20 | 53.16883 | 8.93457 | 2002 ft | 114 kts | 244° |
| 2026-04-22 18:20 | 53.16499 | 8.92277 | 1995 ft | 116 kts | 243° |
| 2026-04-22 18:21 | 53.16092 | 8.91130 | 2006 ft | 115 kts | 240° |
| 2026-04-22 18:21 | 53.15676 | 8.89990 | 2040 ft | 113 kts | 242° |
| 2026-04-22 18:21 | 53.15274 | 8.88856 | 2026 ft | 116 kts | 240° |
| 2026-04-22 18:21 | 53.14828 | 8.87728 | 2037 ft | 116 kts | 238° |
| 2026-04-22 18:22 | 53.14383 | 8.86564 | 1959 ft | 120 kts | 238° |
| 2026-04-22 18:22 | 53.13942 | 8.85434 | 2001 ft | 114 kts | 241° |
| 2026-04-22 18:22 | 53.13544 | 8.84295 | 2026 ft | 113 kts | 242° |
| 2026-04-22 18:22 | 53.13171 | 8.83141 | 2041 ft | 113 kts | 246° |
| 2026-04-22 18:23 | 53.12824 | 8.81943 | 2049 ft | 113 kts | 247° |
| 2026-04-22 18:23 | 53.12490 | 8.80730 | 2018 ft | 115 kts | 248° |
| 2026-04-22 18:23 | 53.12200 | 8.79515 | 2020 ft | 112 kts | 252° |
| 2026-04-22 18:24 | 53.11615 | 8.77085 | 1984 ft | 112 kts | 251° |
| 2026-04-22 18:24 | 53.11308 | 8.75882 | 1976 ft | 114 kts | 246° |
| 2026-04-22 18:24 | 53.10147 | 8.74378 | 2018 ft | 122 kts | 163° |
| 2026-04-22 18:25 | 53.09386 | 8.75137 | 1944 ft | 129 kts | 142° |
| 2026-04-22 18:25 | 53.08642 | 8.75872 | 2023 ft | 123 kts | 149° |
| 2026-04-22 18:25 | 53.07843 | 8.76474 | 2018 ft | 126 kts | 154° |
| 2026-04-22 18:26 | 53.06197 | 8.77478 | 2043 ft | 126 kts | 158° |
| 2026-04-22 18:26 | 53.05361 | 8.77942 | 2023 ft | 128 kts | 162° |
| 2026-04-22 18:26 | 53.04507 | 8.78320 | 2050 ft | 126 kts | 162° |
| 2026-04-22 18:26 | 53.03656 | 8.78727 | 2008 ft | 130 kts | 160° |
| 2026-04-22 18:27 | 53.02803 | 8.79189 | 1964 ft | 130 kts | 159° |
| 2026-04-22 18:27 | 53.01945 | 8.79609 | 1980 ft | 127 kts | 162° |
| 2026-04-22 18:27 | 53.01082 | 8.79956 | 1951 ft | 128 kts | 167° |
| 2026-04-22 18:27 | 53.00209 | 8.80279 | 1952 ft | 127 kts | 163° |
| 2026-04-22 18:28 | 52.99348 | 8.80635 | 1934 ft | 129 kts | 164° |
| 2026-04-22 18:28 | 52.98478 | 8.80970 | 1947 ft | 126 kts | 165° |
| 2026-04-22 18:28 | 52.97617 | 8.81247 | 1964 ft | 126 kts | 168° |
| 2026-04-22 18:28 | 52.96737 | 8.81439 | 1951 ft | 127 kts | 170° |
| 2026-04-22 18:29 | 52.95871 | 8.81653 | 1955 ft | 127 kts | 169° |
| 2026-04-22 18:29 | 52.95013 | 8.82045 | 1968 ft | 127 kts | 150° |
| 2026-04-22 18:29 | 52.94355 | 8.83000 | 1960 ft | 127 kts | 120° |
| 2026-04-22 18:29 | 52.93932 | 8.84269 | 1962 ft | 125 kts | 107° |
| 2026-04-22 18:30 | 52.93666 | 8.85651 | 1894 ft | 128 kts | 97° |
| 2026-04-22 18:30 | 52.93452 | 8.88609 | 1678 ft | 130 kts | 79° |
| 2026-04-22 18:30 | 52.93481 | 8.90109 | 1547 ft | 128 kts | 80° |
| 2026-04-22 18:31 | 52.93486 | 8.91566 | 1469 ft | 126 kts | 79° |
| 2026-04-22 18:31 | 52.93566 | 8.92981 | 1464 ft | 122 kts | 74° |
| 2026-04-22 18:31 | 52.93687 | 8.94381 | 1449 ft | 120 kts | 71° |
| 2026-04-22 18:31 | 52.93787 | 8.95755 | 1472 ft | 119 kts | 76° |
| 2026-04-22 18:32 | 52.93890 | 8.97110 | 1504 ft | 119 kts | 72° |
| 2026-04-22 18:32 | 52.94030 | 8.98454 | 1514 ft | 119 kts | 72° |
| 2026-04-22 18:32 | 52.94153 | 8.99817 | 1520 ft | 120 kts | 73° |
| 2026-04-22 18:32 | 52.94220 | 9.01194 | 1554 ft | 119 kts | 78° |
| 2026-04-22 18:33 | 52.94288 | 9.02576 | 1545 ft | 121 kts | 75° |
| 2026-04-22 18:33 | 52.94388 | 9.03982 | 1496 ft | 122 kts | 73° |
| 2026-04-22 18:33 | 52.94477 | 9.05395 | 1459 ft | 124 kts | 82° |
| 2026-04-22 18:33 | 52.94408 | 9.06789 | 1492 ft | 120 kts | 86° |
| 2026-04-22 18:34 | 52.94359 | 9.08183 | 1491 ft | 122 kts | 85° |
| 2026-04-22 18:34 | 52.94364 | 9.09572 | 1502 ft | 121 kts | 76° |
| 2026-04-22 18:34 | 52.94424 | 9.10967 | 1511 ft | 120 kts | 77° |
| 2026-04-22 18:34 | 52.94494 | 9.12350 | 1519 ft | 120 kts | 76° |
| 2026-04-22 18:35 | 52.94584 | 9.13732 | 1523 ft | 120 kts | 75° |
| 2026-04-22 18:35 | 52.94684 | 9.15112 | 1513 ft | 121 kts | 73° |
| 2026-04-22 18:35 | 52.94832 | 9.16487 | 1484 ft | 120 kts | 70° |
| 2026-04-22 18:35 | 52.95009 | 9.17833 | 1477 ft | 120 kts | 67° |
| 2026-04-22 18:36 | 52.95217 | 9.19184 | 1480 ft | 119 kts | 67° |
| 2026-04-22 18:36 | 52.95417 | 9.20501 | 1514 ft | 117 kts | 66° |
| 2026-04-22 18:36 | 52.95639 | 9.21819 | 1483 ft | 121 kts | 68° |
| 2026-04-22 18:36 | 52.95775 | 9.23202 | 1452 ft | 122 kts | 71° |
| 2026-04-22 18:37 | 52.95898 | 9.24565 | 1480 ft | 120 kts | 73° |
| 2026-04-22 18:37 | 52.96039 | 9.25944 | 1456 ft | 120 kts | 70° |
| 2026-04-22 18:37 | 52.96157 | 9.26844 | 1488 ft | 117 kts | 68° |
| 2026-04-22 18:37 | 52.96562 | 9.28461 | 1510 ft | 111 kts | 37° |
| 2026-04-22 18:38 | 52.97238 | 9.28997 | 1510 ft | 107 kts | 1° |
| 2026-04-22 18:38 | 52.97970 | 9.29152 | 1511 ft | 107 kts | 357° |
| 2026-04-22 18:38 | 52.98714 | 9.29261 | 1529 ft | 106 kts | 357° |
| 2026-04-22 18:39 | 53.00177 | 9.29668 | 1535 ft | 108 kts | 6° |
| 2026-04-22 18:39 | 53.00894 | 9.30046 | 1539 ft | 109 kts | 11° |
| 2026-04-22 18:39 | 53.01614 | 9.30467 | 1549 ft | 108 kts | 10° |
| 2026-04-22 18:39 | 53.02322 | 9.30860 | 1568 ft | 108 kts | 9° |
| 2026-04-22 18:40 | 53.03046 | 9.31224 | 1580 ft | 108 kts | 7° |
| 2026-04-22 18:40 | 53.03771 | 9.31583 | 1552 ft | 110 kts | 7° |
| 2026-04-22 18:40 | 53.04504 | 9.31952 | 1553 ft | 109 kts | 8° |
| 2026-04-22 18:40 | 53.05231 | 9.32284 | 1545 ft | 109 kts | 4° |
| 2026-04-22 18:41 | 53.05970 | 9.32553 | 1540 ft | 108 kts | 3° |
| 2026-04-22 18:41 | 53.06714 | 9.32818 | 1509 ft | 110 kts | 4° |
| 2026-04-22 18:41 | 53.07457 | 9.33123 | 1510 ft | 109 kts | 5° |
| 2026-04-22 18:41 | 53.08189 | 9.33408 | 1484 ft | 109 kts | 4° |
| 2026-04-22 18:42 | 53.08934 | 9.33694 | 1490 ft | 108 kts | 5° |
| 2026-04-22 18:42 | 53.09661 | 9.34004 | 1473 ft | 109 kts | 5° |
| 2026-04-22 18:42 | 53.10406 | 9.34310 | 1467 ft | 109 kts | 5° |
| 2026-04-22 18:42 | 53.11133 | 9.34592 | 1471 ft | 108 kts | 3° |
| 2026-04-22 18:43 | 53.11875 | 9.34831 | 1457 ft | 108 kts | 1° |
| 2026-04-22 18:43 | 53.12607 | 9.35120 | 1478 ft | 110 kts | 22° |
| 2026-04-22 18:43 | 53.12937 | 9.36280 | 1452 ft | 120 kts | 81° |
| 2026-04-22 18:43 | 53.12799 | 9.37666 | 1477 ft | 121 kts | 94° |
| 2026-04-22 18:44 | 53.12626 | 9.39072 | 1479 ft | 123 kts | 94° |
| 2026-04-22 18:44 | 53.12461 | 9.40476 | 1465 ft | 125 kts | 92° |
| 2026-04-22 18:44 | 53.12323 | 9.41888 | 1476 ft | 123 kts | 90° |
| 2026-04-22 18:44 | 53.12275 | 9.43317 | 1490 ft | 122 kts | 81° |
| 2026-04-22 18:45 | 53.12313 | 9.44735 | 1497 ft | 123 kts | 78° |
| 2026-04-22 18:45 | 53.12364 | 9.46164 | 1484 ft | 124 kts | 79° |
| 2026-04-22 18:45 | 53.12389 | 9.47607 | 1470 ft | 125 kts | 86° |
| 2026-04-22 18:45 | 53.12238 | 9.49036 | 1462 ft | 126 kts | 98° |
| 2026-04-22 18:46 | 53.12044 | 9.50451 | 1492 ft | 124 kts | 97° |
| 2026-04-22 18:46 | 53.11839 | 9.51874 | 1462 ft | 127 kts | 96° |
| 2026-04-22 18:46 | 53.11650 | 9.53310 | 1469 ft | 126 kts | 95° |
| 2026-04-22 18:46 | 53.11457 | 9.54748 | 1448 ft | 128 kts | 98° |
| 2026-04-22 18:47 | 53.11257 | 9.56171 | 1450 ft | 126 kts | 94° |
| 2026-04-22 18:47 | 53.11127 | 9.57636 | 1443 ft | 127 kts | 89° |
| 2026-04-22 18:47 | 53.11131 | 9.59097 | 1433 ft | 126 kts | 79° |
| 2026-04-22 18:47 | 53.11197 | 9.60542 | 1448 ft | 125 kts | 77° |
| 2026-04-22 18:48 | 53.11290 | 9.61989 | 1434 ft | 126 kts | 74° |
| 2026-04-22 18:48 | 53.11425 | 9.63440 | 1451 ft | 125 kts | 73° |
| 2026-04-22 18:48 | 53.11548 | 9.64869 | 1467 ft | 122 kts | 73° |
| 2026-04-22 18:48 | 53.11662 | 9.66260 | 1484 ft | 123 kts | 76° |
| 2026-04-22 18:49 | 53.11687 | 9.67722 | 1430 ft | 129 kts | 85° |
| 2026-04-22 18:49 | 53.11640 | 9.69203 | 1445 ft | 126 kts | 86° |
| 2026-04-22 18:49 | 53.11627 | 9.70669 | 1441 ft | 127 kts | 83° |
| 2026-04-22 18:49 | 53.11668 | 9.72139 | 1440 ft | 127 kts | 80° |
| 2026-04-22 18:50 | 53.11676 | 9.73613 | 1430 ft | 127 kts | 86° |
| 2026-04-22 18:50 | 53.11604 | 9.75085 | 1429 ft | 127 kts | 91° |
| 2026-04-22 18:50 | 53.11500 | 9.76542 | 1445 ft | 127 kts | 91° |
| 2026-04-22 18:50 | 53.11475 | 9.78027 | 1422 ft | 127 kts | 82° |
| 2026-04-22 18:51 | 53.11647 | 9.79413 | 1447 ft | 119 kts | 47° |
| 2026-04-22 18:51 | 53.12315 | 9.80139 | 1404 ft | 115 kts | 9° |
| 2026-04-22 18:51 | 53.13073 | 9.80480 | 1424 ft | 111 kts | 2° |
| 2026-04-22 18:51 | 53.13833 | 9.80789 | 1413 ft | 113 kts | 4° |
| 2026-04-22 18:52 | 53.14592 | 9.81127 | 1415 ft | 113 kts | 5° |
| 2026-04-22 18:52 | 53.15344 | 9.81477 | 1417 ft | 113 kts | 6° |
| 2026-04-22 18:52 | 53.16089 | 9.81914 | 1407 ft | 114 kts | 11° |
| 2026-04-22 18:52 | 53.16838 | 9.82320 | 1404 ft | 113 kts | 3° |
| 2026-04-22 18:53 | 53.17610 | 9.82536 | 1406 ft | 111 kts | 357° |
| 2026-04-22 18:53 | 53.18371 | 9.82771 | 1418 ft | 111 kts | 2° |
| 2026-04-22 18:53 | 53.19125 | 9.83032 | 1433 ft | 111 kts | 359° |
| 2026-04-22 18:53 | 53.19890 | 9.83206 | 1428 ft | 111 kts | 357° |
| 2026-04-22 18:54 | 53.20654 | 9.83344 | 1430 ft | 111 kts | 356° |
| 2026-04-22 18:54 | 53.21416 | 9.83497 | 1436 ft | 111 kts | 358° |
| 2026-04-22 18:54 | 53.22185 | 9.83681 | 1430 ft | 111 kts | 358° |
| 2026-04-22 18:54 | 53.22949 | 9.83878 | 1422 ft | 111 kts | 359° |
| 2026-04-22 18:55 | 53.23719 | 9.84104 | 1424 ft | 112 kts | 1° |
| 2026-04-22 18:55 | 53.24481 | 9.84389 | 1412 ft | 112 kts | 1° |
| 2026-04-22 18:55 | 53.25236 | 9.84643 | 1415 ft | 111 kts | 1° |
| 2026-04-22 18:55 | 53.25997 | 9.84918 | 1427 ft | 112 kts | 1° |
| 2026-04-22 18:56 | 53.26756 | 9.85190 | 1434 ft | 111 kts | 1° |
| 2026-04-22 18:56 | 53.27503 | 9.85465 | 1458 ft | 111 kts | 1° |
| 2026-04-22 18:56 | 53.28275 | 9.85698 | 1460 ft | 111 kts | 359° |
| 2026-04-22 18:56 | 53.29037 | 9.85897 | 1468 ft | 110 kts | 358° |
| 2026-04-22 18:57 | 53.29792 | 9.86092 | 1493 ft | 110 kts | 358° |
| 2026-04-22 18:57 | 53.30556 | 9.86285 | 1495 ft | 111 kts | 358° |
| 2026-04-22 18:57 | 53.31321 | 9.86478 | 1496 ft | 111 kts | 358° |
| 2026-04-22 18:57 | 53.32089 | 9.86670 | 1496 ft | 111 kts | 358° |
| 2026-04-22 18:58 | 53.32837 | 9.87053 | 1466 ft | 116 kts | 18° |
| 2026-04-22 18:58 | 53.33535 | 9.87707 | 1493 ft | 115 kts | 19° |
| 2026-04-22 18:58 | 53.34230 | 9.88384 | 1492 ft | 115 kts | 19° |
| 2026-04-22 18:58 | 53.34925 | 9.89067 | 1496 ft | 115 kts | 19° |
| 2026-04-22 18:59 | 53.35609 | 9.89740 | 1496 ft | 115 kts | 19° |
| 2026-04-22 18:59 | 53.36297 | 9.90417 | 1496 ft | 115 kts | 19° |
| 2026-04-22 18:59 | 53.36994 | 9.91103 | 1496 ft | 115 kts | 19° |
| 2026-04-22 18:59 | 53.37672 | 9.91771 | 1496 ft | 115 kts | 19° |
| 2026-04-22 19:00 | 53.38373 | 9.92453 | 1498 ft | 115 kts | 19° |
| 2026-04-22 19:00 | 53.39066 | 9.93108 | 1496 ft | 115 kts | 19° |
| 2026-04-22 19:00 | 53.39756 | 9.93781 | 1496 ft | 115 kts | 20° |
| 2026-04-22 19:00 | 53.40448 | 9.94460 | 1496 ft | 115 kts | 20° |
| 2026-04-22 19:01 | 53.41148 | 9.95148 | 1496 ft | 115 kts | 20° |
| 2026-04-22 19:01 | 53.41831 | 9.95818 | 1496 ft | 115 kts | 20° |
| 2026-04-22 19:01 | 53.42533 | 9.96508 | 1496 ft | 116 kts | 21° |
| 2026-04-22 19:01 | 53.43218 | 9.97222 | 1495 ft | 116 kts | 22° |
| 2026-04-22 19:02 | 53.43895 | 9.97967 | 1494 ft | 115 kts | 24° |
| 2026-04-22 19:02 | 53.44555 | 9.98695 | 1496 ft | 115 kts | 24° |
| 2026-04-22 19:02 | 53.45258 | 9.99310 | 1510 ft | 111 kts | 7° |
| 2026-04-22 19:02 | 53.46005 | 9.99605 | 1498 ft | 111 kts | 2° |
| 2026-04-22 19:03 | 53.46762 | 9.99823 | 1495 ft | 110 kts | 358° |
| 2026-04-22 19:03 | 53.47514 | 9.99976 | 1500 ft | 107 kts | 354° |
| 2026-04-22 19:03 | 53.48248 | 10.00080 | 1496 ft | 106 kts | 354° |
| 2026-04-22 19:03 | 53.48989 | 10.00169 | 1496 ft | 106 kts | 353° |
| 2026-04-22 19:04 | 53.49724 | 10.00251 | 1496 ft | 106 kts | 353° |
| 2026-04-22 19:04 | 53.50468 | 10.00332 | 1497 ft | 106 kts | 353° |
| 2026-04-22 19:04 | 53.51194 | 10.00323 | 1498 ft | 105 kts | 348° |
| 2026-04-22 19:04 | 53.51929 | 10.00255 | 1498 ft | 105 kts | 345° |
| 2026-04-22 19:05 | 53.52645 | 10.00117 | 1497 ft | 104 kts | 342° |
| 2026-04-22 19:05 | 53.53364 | 9.99957 | 1496 ft | 104 kts | 342° |
| 2026-04-22 19:05 | 53.54082 | 9.99797 | 1496 ft | 104 kts | 342° |
| 2026-04-22 19:05 | 53.54805 | 9.99608 | 1497 ft | 104 kts | 340° |
| 2026-04-22 19:06 | 53.55523 | 9.99403 | 1411 ft | 108 kts | 344° |
| 2026-04-22 19:06 | 53.56278 | 9.99340 | 1336 ft | 108 kts | 355° |
| 2026-04-22 19:06 | 53.57024 | 9.99471 | 1244 ft | 109 kts | 0° |
| 2026-04-22 19:07 | 53.58513 | 9.99585 | 1076 ft | 105 kts | 354° |
| 2026-04-22 19:07 | 53.59239 | 9.99594 | 969 ft | 102 kts | 351° |
| 2026-04-22 19:07 | 53.59947 | 9.99530 | 824 ft | 101 kts | 349° |
| 2026-04-22 19:07 | 53.60613 | 9.99375 | 693 ft | 91 kts | 340° |
| 2026-04-22 19:08 | 53.61206 | 9.99133 | 584 ft | 84 kts | 343° |
| 2026-04-22 19:08 | 53.61720 | 9.98889 | 509 ft | 70 kts | 337° |
| 2026-04-22 19:08 | 53.62133 | 9.98661 | 389 ft | 52 kts | 331° |
| 2026-04-22 19:08 | 53.62406 | 9.98522 | 243 ft | 28 kts | 339° |
| 2026-04-22 19:09 | 53.62535 | 9.98460 | 108 ft | 13 kts | 16° |
| 2026-04-22 19:09 | 53.62515 | 9.98682 | 63 ft | 24 kts | 79° |
| 2026-04-22 19:09 | 53.62536 | 9.98871 | 64 ft | 26 kts | 81° |
| 2026-04-22 19:09 | 53.62581 | 9.99267 | 64 ft | 18 kts | 83° |
| 2026-04-22 19:10 | 53.62562 | 9.99340 | 63 ft | 8 kts | 173° |
| 2026-04-22 19:10 | 53.62535 | 9.99395 | 63 ft | 6 kts | 348° |
| 2026-04-22 19:10 | 53.62545 | 9.99398 | 60 ft | 0 kts | 265° |
| 2026-04-22 19:10 | 53.62545 | 9.99396 | 58 ft | 0 kts | 262° |